sensor_id;sensor_type;location;lat;lon;timestamp;P1;durP1;ratioP1;P2;durP2;ratioP2
43650;SDS011;29247;50.944;5.382;2023-03-01T00:01:03;8.02;;;5.55;;
43650;SDS011;29247;50.944;5.382;2023-03-01T00:03:35;10.90;;;5.93;;
43650;SDS011;29247;50.944;5.382;2023-03-01T00:06:04;11.35;;;6.20;;
43650;SDS011;29247;50.944;5.382;2023-03-01T00:08:30;8.35;;;5.03;;
43650;SDS011;29247;50.944;5.382;2023-03-01T00:11:05;10.23;;;5.45;;
43650;SDS011;29247;50.944;5.382;2023-03-01T00:13:34;7.45;;;5.40;;
43650;SDS011;29247;50.944;5.382;2023-03-01T00:16:04;12.00;;;5.90;;
43650;SDS011;29247;50.944;5.382;2023-03-01T00:18:32;8.63;;;5.57;;
43650;SDS011;29247;50.944;5.382;2023-03-01T00:21:00;8.70;;;5.90;;
43650;SDS011;29247;50.944;5.382;2023-03-01T00:23:26;10.70;;;5.78;;
43650;SDS011;29247;50.944;5.382;2023-03-01T00:25:54;13.20;;;5.80;;
43650;SDS011;29247;50.944;5.382;2023-03-01T00:28:20;8.43;;;5.72;;
43650;SDS011;29247;50.944;5.382;2023-03-01T00:30:48;7.57;;;5.25;;
43650;SDS011;29247;50.944;5.382;2023-03-01T00:33:17;13.02;;;6.03;;
43650;SDS011;29247;50.944;5.382;2023-03-01T00:35:43;8.68;;;5.32;;
43650;SDS011;29247;50.944;5.382;2023-03-01T00:38:09;9.00;;;5.68;;
43650;SDS011;29247;50.944;5.382;2023-03-01T00:40:37;10.60;;;5.85;;
43650;SDS011;29247;50.944;5.382;2023-03-01T00:43:03;9.45;;;5.93;;
43650;SDS011;29247;50.944;5.382;2023-03-01T00:45:29;10.63;;;6.10;;
43650;SDS011;29247;50.944;5.382;2023-03-01T00:47:56;8.75;;;5.10;;
43650;SDS011;29247;50.944;5.382;2023-03-01T00:50:23;9.18;;;5.28;;
43650;SDS011;29247;50.944;5.382;2023-03-01T00:52:54;10.38;;;5.30;;
43650;SDS011;29247;50.944;5.382;2023-03-01T00:55:21;10.45;;;5.80;;
43650;SDS011;29247;50.944;5.382;2023-03-01T00:57:47;8.13;;;5.35;;
43650;SDS011;29247;50.944;5.382;2023-03-01T01:00:13;13.45;;;6.55;;
43650;SDS011;29247;50.944;5.382;2023-03-01T01:02:40;8.18;;;5.10;;
43650;SDS011;29247;50.944;5.382;2023-03-01T01:05:09;8.05;;;5.22;;
43650;SDS011;29247;50.944;5.382;2023-03-01T01:07:38;9.55;;;5.45;;
43650;SDS011;29247;50.944;5.382;2023-03-01T01:10:04;9.05;;;5.65;;
43650;SDS011;29247;50.944;5.382;2023-03-01T01:12:33;7.60;;;5.53;;
43650;SDS011;29247;50.944;5.382;2023-03-01T01:15:08;9.07;;;5.25;;
43650;SDS011;29247;50.944;5.382;2023-03-01T01:17:37;9.23;;;5.80;;
43650;SDS011;29247;50.944;5.382;2023-03-01T01:20:02;11.27;;;6.00;;
43650;SDS011;29247;50.944;5.382;2023-03-01T01:22:29;9.65;;;5.80;;
43650;SDS011;29247;50.944;5.382;2023-03-01T01:24:54;9.23;;;5.70;;
43650;SDS011;29247;50.944;5.382;2023-03-01T01:27:23;7.32;;;5.25;;
43650;SDS011;29247;50.944;5.382;2023-03-01T01:29:49;13.38;;;6.43;;
43650;SDS011;29247;50.944;5.382;2023-03-01T01:32:17;14.57;;;6.10;;
43650;SDS011;29247;50.944;5.382;2023-03-01T01:34:45;9.68;;;6.18;;
43650;SDS011;29247;50.944;5.382;2023-03-01T01:37:13;9.52;;;5.88;;
43650;SDS011;29247;50.944;5.382;2023-03-01T01:39:39;8.23;;;5.75;;
43650;SDS011;29247;50.944;5.382;2023-03-01T01:42:05;9.57;;;6.32;;
43650;SDS011;29247;50.944;5.382;2023-03-01T01:44:33;7.97;;;5.93;;
43650;SDS011;29247;50.944;5.382;2023-03-01T01:49:40;11.02;;;5.38;;
43650;SDS011;29247;50.944;5.382;2023-03-01T01:57:34;12.00;;;5.55;;
43650;SDS011;29247;50.944;5.382;2023-03-01T02:00:10;9.23;;;6.13;;
43650;SDS011;29247;50.944;5.382;2023-03-01T02:02:42;10.32;;;5.65;;
43650;SDS011;29247;50.944;5.382;2023-03-01T02:05:15;9.30;;;6.30;;
43650;SDS011;29247;50.944;5.382;2023-03-01T02:07:46;11.35;;;6.25;;
43650;SDS011;29247;50.944;5.382;2023-03-01T02:10:14;9.85;;;6.13;;
43650;SDS011;29247;50.944;5.382;2023-03-01T02:12:40;11.07;;;5.97;;
43650;SDS011;29247;50.944;5.382;2023-03-01T02:15:06;13.80;;;5.93;;
43650;SDS011;29247;50.944;5.382;2023-03-01T02:17:35;9.27;;;5.93;;
43650;SDS011;29247;50.944;5.382;2023-03-01T02:22:36;8.30;;;6.88;;
43650;SDS011;29247;50.944;5.382;2023-03-01T02:30:35;8.80;;;5.28;;
43650;SDS011;29247;50.944;5.382;2023-03-01T02:33:02;9.85;;;6.13;;
43650;SDS011;29247;50.944;5.382;2023-03-01T02:35:38;9.55;;;5.75;;
43650;SDS011;29247;50.944;5.382;2023-03-01T02:38:06;10.45;;;6.40;;
43650;SDS011;29247;50.944;5.382;2023-03-01T02:40:36;7.97;;;5.93;;
43650;SDS011;29247;50.944;5.382;2023-03-01T02:43:05;9.05;;;6.32;;
43650;SDS011;29247;50.944;5.382;2023-03-01T02:45:33;9.38;;;6.45;;
43650;SDS011;29247;50.944;5.382;2023-03-01T02:47:59;9.10;;;5.68;;
43650;SDS011;29247;50.944;5.382;2023-03-01T02:55:26;9.65;;;6.55;;
43650;SDS011;29247;50.944;5.382;2023-03-01T02:57:52;16.83;;;6.93;;
43650;SDS011;29247;50.944;5.382;2023-03-01T03:00:21;11.27;;;5.95;;
43650;SDS011;29247;50.944;5.382;2023-03-01T03:02:52;8.15;;;5.93;;
43650;SDS011;29247;50.944;5.382;2023-03-01T03:05:23;15.00;;;6.03;;
43650;SDS011;29247;50.944;5.382;2023-03-01T03:07:51;13.05;;;6.22;;
43650;SDS011;29247;50.944;5.382;2023-03-01T03:10:18;12.90;;;6.00;;
43650;SDS011;29247;50.944;5.382;2023-03-01T03:12:53;12.48;;;6.30;;
43650;SDS011;29247;50.944;5.382;2023-03-01T03:15:23;11.38;;;6.35;;
43650;SDS011;29247;50.944;5.382;2023-03-01T03:17:56;7.35;;;5.28;;
43650;SDS011;29247;50.944;5.382;2023-03-01T03:20:23;13.52;;;6.28;;
43650;SDS011;29247;50.944;5.382;2023-03-01T03:22:53;10.60;;;5.78;;
43650;SDS011;29247;50.944;5.382;2023-03-01T03:25:21;11.43;;;6.65;;
43650;SDS011;29247;50.944;5.382;2023-03-01T03:27:48;11.75;;;6.72;;
43650;SDS011;29247;50.944;5.382;2023-03-01T03:30:22;8.35;;;5.55;;
43650;SDS011;29247;50.944;5.382;2023-03-01T03:35:18;10.70;;;5.63;;
43650;SDS011;29247;50.944;5.382;2023-03-01T03:37:50;11.70;;;6.40;;
43650;SDS011;29247;50.944;5.382;2023-03-01T03:40:33;11.30;;;6.05;;
43650;SDS011;29247;50.944;5.382;2023-03-01T03:43:04;10.98;;;6.35;;
43650;SDS011;29247;50.944;5.382;2023-03-01T03:45:32;12.70;;;6.80;;
43650;SDS011;29247;50.944;5.382;2023-03-01T03:47:58;12.00;;;6.97;;
43650;SDS011;29247;50.944;5.382;2023-03-01T03:50:27;7.22;;;6.15;;
43650;SDS011;29247;50.944;5.382;2023-03-01T03:52:53;11.35;;;6.35;;
43650;SDS011;29247;50.944;5.382;2023-03-01T03:55:21;10.35;;;6.72;;
43650;SDS011;29247;50.944;5.382;2023-03-01T03:57:53;13.68;;;7.15;;
43650;SDS011;29247;50.944;5.382;2023-03-01T04:00:21;13.20;;;7.45;;
43650;SDS011;29247;50.944;5.382;2023-03-01T04:02:49;8.02;;;5.95;;
43650;SDS011;29247;50.944;5.382;2023-03-01T04:05:21;8.40;;;6.28;;
43650;SDS011;29247;50.944;5.382;2023-03-01T04:07:47;11.18;;;6.68;;
43650;SDS011;29247;50.944;5.382;2023-03-01T04:10:28;12.50;;;7.25;;
43650;SDS011;29247;50.944;5.382;2023-03-01T04:12:55;14.03;;;7.20;;
43650;SDS011;29247;50.944;5.382;2023-03-01T04:15:24;9.93;;;6.20;;
43650;SDS011;29247;50.944;5.382;2023-03-01T04:17:52;10.68;;;7.13;;
43650;SDS011;29247;50.944;5.382;2023-03-01T04:20:28;9.10;;;6.25;;
43650;SDS011;29247;50.944;5.382;2023-03-01T04:23:06;8.93;;;6.55;;
43650;SDS011;29247;50.944;5.382;2023-03-01T04:25:49;10.05;;;6.50;;
43650;SDS011;29247;50.944;5.382;2023-03-01T04:28:19;9.63;;;6.10;;
43650;SDS011;29247;50.944;5.382;2023-03-01T04:30:48;13.63;;;6.93;;
43650;SDS011;29247;50.944;5.382;2023-03-01T04:33:14;12.77;;;6.93;;
43650;SDS011;29247;50.944;5.382;2023-03-01T04:35:39;11.65;;;7.15;;
43650;SDS011;29247;50.944;5.382;2023-03-01T04:38:08;9.70;;;6.75;;
43650;SDS011;29247;50.944;5.382;2023-03-01T04:40:34;10.20;;;7.30;;
43650;SDS011;29247;50.944;5.382;2023-03-01T04:43:00;11.98;;;6.75;;
43650;SDS011;29247;50.944;5.382;2023-03-01T04:45:26;11.93;;;7.40;;
43650;SDS011;29247;50.944;5.382;2023-03-01T04:47:55;14.02;;;7.60;;
43650;SDS011;29247;50.944;5.382;2023-03-01T04:50:23;10.23;;;6.70;;
43650;SDS011;29247;50.944;5.382;2023-03-01T04:52:52;13.25;;;7.65;;
43650;SDS011;29247;50.944;5.382;2023-03-01T04:55:18;12.82;;;6.93;;
43650;SDS011;29247;50.944;5.382;2023-03-01T04:57:44;10.45;;;7.13;;
43650;SDS011;29247;50.944;5.382;2023-03-01T05:00:10;10.75;;;7.05;;
43650;SDS011;29247;50.944;5.382;2023-03-01T05:02:51;14.93;;;8.10;;
43650;SDS011;29247;50.944;5.382;2023-03-01T05:08:01;11.88;;;7.60;;
43650;SDS011;29247;50.944;5.382;2023-03-01T05:10:29;12.85;;;7.82;;
43650;SDS011;29247;50.944;5.382;2023-03-01T05:12:56;10.18;;;6.43;;
43650;SDS011;29247;50.944;5.382;2023-03-01T05:15:23;15.48;;;7.90;;
43650;SDS011;29247;50.944;5.382;2023-03-01T05:17:53;10.75;;;7.05;;
43650;SDS011;29247;50.944;5.382;2023-03-01T05:20:25;13.70;;;7.65;;
43650;SDS011;29247;50.944;5.382;2023-03-01T05:22:59;12.15;;;7.50;;
43650;SDS011;29247;50.944;5.382;2023-03-01T05:25:30;11.18;;;7.70;;
43650;SDS011;29247;50.944;5.382;2023-03-01T05:27:58;12.43;;;7.22;;
43650;SDS011;29247;50.944;5.382;2023-03-01T05:30:30;15.00;;;8.48;;
43650;SDS011;29247;50.944;5.382;2023-03-01T05:32:57;14.98;;;7.28;;
43650;SDS011;29247;50.944;5.382;2023-03-01T05:35:26;10.55;;;7.60;;
43650;SDS011;29247;50.944;5.382;2023-03-01T05:37:52;14.18;;;8.10;;
43650;SDS011;29247;50.944;5.382;2023-03-01T05:40:19;12.00;;;7.15;;
43650;SDS011;29247;50.944;5.382;2023-03-01T05:42:48;12.38;;;8.10;;
43650;SDS011;29247;50.944;5.382;2023-03-01T05:45:21;13.80;;;7.78;;
43650;SDS011;29247;50.944;5.382;2023-03-01T05:47:48;10.48;;;7.50;;
43650;SDS011;29247;50.944;5.382;2023-03-01T05:52:44;10.63;;;7.72;;
43650;SDS011;29247;50.944;5.382;2023-03-01T05:55:11;13.00;;;7.82;;
43650;SDS011;29247;50.944;5.382;2023-03-01T05:57:39;11.43;;;7.70;;
43650;SDS011;29247;50.944;5.382;2023-03-01T06:00:08;13.38;;;8.38;;
43650;SDS011;29247;50.944;5.382;2023-03-01T06:02:36;12.27;;;8.15;;
43650;SDS011;29247;50.944;5.382;2023-03-01T06:05:03;13.65;;;7.43;;
43650;SDS011;29247;50.944;5.382;2023-03-01T06:07:32;7.83;;;5.30;;
43650;SDS011;29247;50.944;5.382;2023-03-01T06:10:00;9.98;;;6.97;;
43650;SDS011;29247;50.944;5.382;2023-03-01T06:12:29;14.07;;;7.78;;
43650;SDS011;29247;50.944;5.382;2023-03-01T06:14:56;12.57;;;7.38;;
43650;SDS011;29247;50.944;5.382;2023-03-01T06:17:22;11.02;;;7.00;;
43650;SDS011;29247;50.944;5.382;2023-03-01T06:19:50;15.52;;;7.40;;
43650;SDS011;29247;50.944;5.382;2023-03-01T06:22:16;11.43;;;7.68;;
43650;SDS011;29247;50.944;5.382;2023-03-01T06:24:42;15.23;;;7.97;;
43650;SDS011;29247;50.944;5.382;2023-03-01T06:27:10;12.45;;;7.35;;
43650;SDS011;29247;50.944;5.382;2023-03-01T06:29:35;11.88;;;7.32;;
43650;SDS011;29247;50.944;5.382;2023-03-01T06:32:03;10.20;;;7.13;;
43650;SDS011;29247;50.944;5.382;2023-03-01T06:34:32;12.05;;;6.75;;
43650;SDS011;29247;50.944;5.382;2023-03-01T06:36:58;11.50;;;6.85;;
43650;SDS011;29247;50.944;5.382;2023-03-01T06:39:30;15.35;;;7.90;;
43650;SDS011;29247;50.944;5.382;2023-03-01T06:41:56;11.90;;;7.25;;
43650;SDS011;29247;50.944;5.382;2023-03-01T06:44:25;15.00;;;7.50;;
43650;SDS011;29247;50.944;5.382;2023-03-01T06:46:54;9.70;;;7.07;;
43650;SDS011;29247;50.944;5.382;2023-03-01T06:49:23;11.13;;;6.45;;
43650;SDS011;29247;50.944;5.382;2023-03-01T06:51:49;12.95;;;7.70;;
43650;SDS011;29247;50.944;5.382;2023-03-01T06:54:15;13.18;;;7.68;;
43650;SDS011;29247;50.944;5.382;2023-03-01T06:56:42;15.80;;;8.43;;
43650;SDS011;29247;50.944;5.382;2023-03-01T06:59:12;17.00;;;8.00;;
43650;SDS011;29247;50.944;5.382;2023-03-01T07:01:38;13.60;;;7.45;;
43650;SDS011;29247;50.944;5.382;2023-03-01T07:04:04;13.82;;;8.23;;
43650;SDS011;29247;50.944;5.382;2023-03-01T07:06:34;14.07;;;7.60;;
43650;SDS011;29247;50.944;5.382;2023-03-01T07:09:00;16.88;;;7.82;;
43650;SDS011;29247;50.944;5.382;2023-03-01T07:11:26;11.18;;;7.82;;
43650;SDS011;29247;50.944;5.382;2023-03-01T07:13:52;13.88;;;7.60;;
43650;SDS011;29247;50.944;5.382;2023-03-01T07:16:18;12.70;;;7.07;;
43650;SDS011;29247;50.944;5.382;2023-03-01T07:18:47;10.90;;;7.15;;
43650;SDS011;29247;50.944;5.382;2023-03-01T07:21:15;12.70;;;7.10;;
43650;SDS011;29247;50.944;5.382;2023-03-01T07:23:44;12.98;;;7.40;;
43650;SDS011;29247;50.944;5.382;2023-03-01T07:26:15;13.95;;;7.93;;
43650;SDS011;29247;50.944;5.382;2023-03-01T07:28:43;13.85;;;8.75;;
43650;SDS011;29247;50.944;5.382;2023-03-01T07:31:09;12.32;;;6.97;;
43650;SDS011;29247;50.944;5.382;2023-03-01T07:33:35;17.00;;;8.55;;
43650;SDS011;29247;50.944;5.382;2023-03-01T07:36:03;13.35;;;8.13;;
43650;SDS011;29247;50.944;5.382;2023-03-01T07:38:32;12.48;;;7.78;;
43650;SDS011;29247;50.944;5.382;2023-03-01T07:41:02;15.13;;;7.93;;
43650;SDS011;29247;50.944;5.382;2023-03-01T07:43:28;13.85;;;8.32;;
43650;SDS011;29247;50.944;5.382;2023-03-01T07:45:59;14.80;;;8.55;;
43650;SDS011;29247;50.944;5.382;2023-03-01T07:48:25;14.90;;;8.45;;
43650;SDS011;29247;50.944;5.382;2023-03-01T07:50:51;14.18;;;8.23;;
43650;SDS011;29247;50.944;5.382;2023-03-01T07:53:19;17.35;;;8.85;;
43650;SDS011;29247;50.944;5.382;2023-03-01T07:55:49;12.85;;;7.78;;
43650;SDS011;29247;50.944;5.382;2023-03-01T07:58:18;16.80;;;8.68;;
43650;SDS011;29247;50.944;5.382;2023-03-01T08:00:43;14.30;;;8.27;;
43650;SDS011;29247;50.944;5.382;2023-03-01T08:03:11;18.67;;;8.23;;
43650;SDS011;29247;50.944;5.382;2023-03-01T08:05:37;14.60;;;8.88;;
43650;SDS011;29247;50.944;5.382;2023-03-01T08:08:03;15.18;;;8.77;;
43650;SDS011;29247;50.944;5.382;2023-03-01T08:10:30;13.40;;;7.95;;
43650;SDS011;29247;50.944;5.382;2023-03-01T08:12:58;17.38;;;8.70;;
43650;SDS011;29247;50.944;5.382;2023-03-01T08:15:23;12.88;;;7.55;;
43650;SDS011;29247;50.944;5.382;2023-03-01T08:17:49;11.50;;;7.80;;
43650;SDS011;29247;50.944;5.382;2023-03-01T08:20:15;14.43;;;8.38;;
43650;SDS011;29247;50.944;5.382;2023-03-01T08:22:41;13.40;;;7.78;;
43650;SDS011;29247;50.944;5.382;2023-03-01T08:25:14;17.33;;;8.88;;
43650;SDS011;29247;50.944;5.382;2023-03-01T08:27:39;16.88;;;9.48;;
43650;SDS011;29247;50.944;5.382;2023-03-01T08:30:05;22.63;;;11.07;;
43650;SDS011;29247;50.944;5.382;2023-03-01T08:32:36;24.83;;;10.10;;
43650;SDS011;29247;50.944;5.382;2023-03-01T08:35:05;19.33;;;10.23;;
43650;SDS011;29247;50.944;5.382;2023-03-01T08:37:31;15.00;;;9.00;;
43650;SDS011;29247;50.944;5.382;2023-03-01T08:39:58;14.13;;;8.30;;
43650;SDS011;29247;50.944;5.382;2023-03-01T08:42:25;15.25;;;8.55;;
43650;SDS011;29247;50.944;5.382;2023-03-01T08:44:53;16.42;;;8.75;;
43650;SDS011;29247;50.944;5.382;2023-03-01T08:47:19;15.23;;;8.63;;
43650;SDS011;29247;50.944;5.382;2023-03-01T08:49:44;13.30;;;8.23;;
43650;SDS011;29247;50.944;5.382;2023-03-01T08:52:13;14.57;;;8.75;;
43650;SDS011;29247;50.944;5.382;2023-03-01T08:54:42;16.90;;;8.38;;
43650;SDS011;29247;50.944;5.382;2023-03-01T08:57:12;15.35;;;8.25;;
43650;SDS011;29247;50.944;5.382;2023-03-01T08:59:40;17.77;;;8.80;;
43650;SDS011;29247;50.944;5.382;2023-03-01T09:02:10;15.20;;;8.13;;
43650;SDS011;29247;50.944;5.382;2023-03-01T09:04:38;13.70;;;8.68;;
43650;SDS011;29247;50.944;5.382;2023-03-01T09:07:04;18.08;;;8.57;;
43650;SDS011;29247;50.944;5.382;2023-03-01T09:09:30;12.88;;;8.55;;
43650;SDS011;29247;50.944;5.382;2023-03-01T09:11:56;14.07;;;8.05;;
43650;SDS011;29247;50.944;5.382;2023-03-01T09:14:22;16.17;;;8.75;;
43650;SDS011;29247;50.944;5.382;2023-03-01T09:16:48;17.10;;;7.97;;
43650;SDS011;29247;50.944;5.382;2023-03-01T09:19:16;18.58;;;9.00;;
43650;SDS011;29247;50.944;5.382;2023-03-01T09:21:42;24.58;;;8.32;;
43650;SDS011;29247;50.944;5.382;2023-03-01T09:24:20;13.48;;;7.53;;
43650;SDS011;29247;50.944;5.382;2023-03-01T09:26:47;14.70;;;8.10;;
43650;SDS011;29247;50.944;5.382;2023-03-01T09:29:13;23.98;;;9.70;;
43650;SDS011;29247;50.944;5.382;2023-03-01T09:31:40;18.90;;;8.55;;
43650;SDS011;29247;50.944;5.382;2023-03-01T09:34:07;15.50;;;8.32;;
43650;SDS011;29247;50.944;5.382;2023-03-01T09:36:36;14.02;;;8.30;;
43650;SDS011;29247;50.944;5.382;2023-03-01T09:39:02;15.73;;;8.15;;
43650;SDS011;29247;50.944;5.382;2023-03-01T09:41:49;12.65;;;7.90;;
43650;SDS011;29247;50.944;5.382;2023-03-01T09:44:32;15.52;;;8.02;;
43650;SDS011;29247;50.944;5.382;2023-03-01T09:47:17;14.68;;;9.07;;
43650;SDS011;29247;50.944;5.382;2023-03-01T09:49:58;14.65;;;8.80;;
43650;SDS011;29247;50.944;5.382;2023-03-01T09:52:48;14.05;;;8.73;;
43650;SDS011;29247;50.944;5.382;2023-03-01T09:55:17;15.32;;;8.13;;
43650;SDS011;29247;50.944;5.382;2023-03-01T10:00:55;20.60;;;8.77;;
43650;SDS011;29247;50.944;5.382;2023-03-01T10:03:39;14.60;;;7.28;;
43650;SDS011;29247;50.944;5.382;2023-03-01T10:06:19;14.15;;;8.15;;
43650;SDS011;29247;50.944;5.382;2023-03-01T10:09:00;15.90;;;8.35;;
43650;SDS011;29247;50.944;5.382;2023-03-01T10:11:33;16.60;;;8.52;;
43650;SDS011;29247;50.944;5.382;2023-03-01T10:19:16;15.70;;;8.77;;
43650;SDS011;29247;50.944;5.382;2023-03-01T10:21:52;19.58;;;8.43;;
43650;SDS011;29247;50.944;5.382;2023-03-01T10:24:22;17.90;;;9.30;;
43650;SDS011;29247;50.944;5.382;2023-03-01T10:26:51;13.75;;;8.45;;
43650;SDS011;29247;50.944;5.382;2023-03-01T10:29:25;15.55;;;8.57;;
43650;SDS011;29247;50.944;5.382;2023-03-01T10:31:59;14.80;;;8.65;;
43650;SDS011;29247;50.944;5.382;2023-03-01T10:34:35;17.90;;;9.50;;
43650;SDS011;29247;50.944;5.382;2023-03-01T10:37:11;19.42;;;9.63;;
43650;SDS011;29247;50.944;5.382;2023-03-01T10:42:33;15.98;;;9.52;;
43650;SDS011;29247;50.944;5.382;2023-03-01T10:48:14;14.75;;;8.50;;
43650;SDS011;29247;50.944;5.382;2023-03-01T10:50:49;19.42;;;9.52;;
43650;SDS011;29247;50.944;5.382;2023-03-01T10:53:32;15.25;;;8.18;;
43650;SDS011;29247;50.944;5.382;2023-03-01T10:56:13;15.63;;;8.85;;
43650;SDS011;29247;50.944;5.382;2023-03-01T10:59:02;16.70;;;8.90;;
43650;SDS011;29247;50.944;5.382;2023-03-01T11:01:29;16.58;;;8.65;;
43650;SDS011;29247;50.944;5.382;2023-03-01T11:06:39;13.57;;;8.40;;
43650;SDS011;29247;50.944;5.382;2023-03-01T11:09:18;15.20;;;8.95;;
43650;SDS011;29247;50.944;5.382;2023-03-01T11:11:45;17.17;;;9.00;;
43650;SDS011;29247;50.944;5.382;2023-03-01T11:14:26;19.00;;;9.50;;
43650;SDS011;29247;50.944;5.382;2023-03-01T11:17:04;14.95;;;8.50;;
43650;SDS011;29247;50.944;5.382;2023-03-01T11:19:38;18.95;;;9.75;;
43650;SDS011;29247;50.944;5.382;2023-03-01T11:22:14;17.42;;;9.25;;
43650;SDS011;29247;50.944;5.382;2023-03-01T11:24:46;13.55;;;8.63;;
43650;SDS011;29247;50.944;5.382;2023-03-01T11:27:21;14.23;;;8.63;;
43650;SDS011;29247;50.944;5.382;2023-03-01T11:29:52;14.35;;;7.82;;
43650;SDS011;29247;50.944;5.382;2023-03-01T11:32:28;13.77;;;7.30;;
43650;SDS011;29247;50.944;5.382;2023-03-01T11:35:08;13.27;;;8.52;;
43650;SDS011;29247;50.944;5.382;2023-03-01T11:40:37;16.23;;;8.75;;
43650;SDS011;29247;50.944;5.382;2023-03-01T11:43:16;14.40;;;8.27;;
43650;SDS011;29247;50.944;5.382;2023-03-01T11:46:06;19.52;;;9.95;;
43650;SDS011;29247;50.944;5.382;2023-03-01T11:51:08;13.45;;;7.88;;
43650;SDS011;29247;50.944;5.382;2023-03-01T11:56:23;13.85;;;8.40;;
43650;SDS011;29247;50.944;5.382;2023-03-01T11:59:13;13.43;;;8.25;;
43650;SDS011;29247;50.944;5.382;2023-03-01T12:04:32;14.18;;;8.43;;
43650;SDS011;29247;50.944;5.382;2023-03-01T12:07:23;14.63;;;8.93;;
43650;SDS011;29247;50.944;5.382;2023-03-01T12:10:19;13.90;;;7.80;;
43650;SDS011;29247;50.944;5.382;2023-03-01T12:12:58;15.32;;;8.75;;
43650;SDS011;29247;50.944;5.382;2023-03-01T12:18:57;13.90;;;8.60;;
43650;SDS011;29247;50.944;5.382;2023-03-01T12:21:35;12.77;;;7.68;;
43650;SDS011;29247;50.944;5.382;2023-03-01T12:29:54;16.88;;;8.20;;
43650;SDS011;29247;50.944;5.382;2023-03-01T12:32:49;13.27;;;8.13;;
43650;SDS011;29247;50.944;5.382;2023-03-01T12:51:06;13.07;;;7.63;;
43650;SDS011;29247;50.944;5.382;2023-03-01T12:53:40;13.52;;;8.32;;
43650;SDS011;29247;50.944;5.382;2023-03-01T12:58:46;14.38;;;8.13;;
43650;SDS011;29247;50.944;5.382;2023-03-01T13:10:19;19.25;;;8.82;;
43650;SDS011;29247;50.944;5.382;2023-03-01T13:17:58;14.15;;;8.35;;
43650;SDS011;29247;50.944;5.382;2023-03-01T13:23:13;11.25;;;7.35;;
43650;SDS011;29247;50.944;5.382;2023-03-01T13:31:55;14.15;;;7.30;;
43650;SDS011;29247;50.944;5.382;2023-03-01T13:33:57;16.88;;;8.30;;
43650;SDS011;29247;50.944;5.382;2023-03-01T13:39:01;10.98;;;7.18;;
43650;SDS011;29247;50.944;5.382;2023-03-01T13:44:20;17.75;;;8.43;;
43650;SDS011;29247;50.944;5.382;2023-03-01T13:47:07;12.50;;;7.47;;
43650;SDS011;29247;50.944;5.382;2023-03-01T13:52:29;12.82;;;7.45;;
43650;SDS011;29247;50.944;5.382;2023-03-01T13:55:03;14.63;;;8.52;;
43650;SDS011;29247;50.944;5.382;2023-03-01T13:57:53;11.57;;;7.30;;
43650;SDS011;29247;50.944;5.382;2023-03-01T14:00:35;15.10;;;7.55;;
43650;SDS011;29247;50.944;5.382;2023-03-01T14:03:08;15.32;;;7.78;;
43650;SDS011;29247;50.944;5.382;2023-03-01T14:05:50;12.23;;;7.70;;
43650;SDS011;29247;50.944;5.382;2023-03-01T14:08:33;14.52;;;8.50;;
43650;SDS011;29247;50.944;5.382;2023-03-01T14:16:19;11.73;;;6.97;;
43650;SDS011;29247;50.944;5.382;2023-03-01T14:19:14;14.35;;;6.97;;
43650;SDS011;29247;50.944;5.382;2023-03-01T14:21:46;11.32;;;7.22;;
43650;SDS011;29247;50.944;5.382;2023-03-01T14:24:22;13.13;;;7.25;;
43650;SDS011;29247;50.944;5.382;2023-03-01T14:26:51;10.45;;;6.85;;
43650;SDS011;29247;50.944;5.382;2023-03-01T14:29:26;12.30;;;6.72;;
43650;SDS011;29247;50.944;5.382;2023-03-01T14:34:42;11.70;;;6.50;;
43650;SDS011;29247;50.944;5.382;2023-03-01T14:37:21;13.27;;;7.78;;
43650;SDS011;29247;50.944;5.382;2023-03-01T14:39:56;14.98;;;7.60;;
43650;SDS011;29247;50.944;5.382;2023-03-01T14:42:26;12.90;;;7.80;;
43650;SDS011;29247;50.944;5.382;2023-03-01T14:45:01;13.43;;;7.97;;
43650;SDS011;29247;50.944;5.382;2023-03-01T14:47:33;15.25;;;7.82;;
43650;SDS011;29247;50.944;5.382;2023-03-01T14:52:37;15.05;;;7.35;;
43650;SDS011;29247;50.944;5.382;2023-03-01T14:55:20;11.60;;;6.50;;
43650;SDS011;29247;50.944;5.382;2023-03-01T14:57:53;12.75;;;6.70;;
43650;SDS011;29247;50.944;5.382;2023-03-01T15:00:26;11.15;;;6.70;;
43650;SDS011;29247;50.944;5.382;2023-03-01T15:02:55;13.70;;;7.20;;
43650;SDS011;29247;50.944;5.382;2023-03-01T15:05:34;12.00;;;6.78;;
43650;SDS011;29247;50.944;5.382;2023-03-01T15:08:06;13.23;;;6.65;;
43650;SDS011;29247;50.944;5.382;2023-03-01T15:10:34;12.93;;;6.93;;
43650;SDS011;29247;50.944;5.382;2023-03-01T15:15:41;11.90;;;7.03;;
43650;SDS011;29247;50.944;5.382;2023-03-01T15:20:52;14.35;;;6.93;;
43650;SDS011;29247;50.944;5.382;2023-03-01T15:23:23;12.77;;;7.15;;
43650;SDS011;29247;50.944;5.382;2023-03-01T15:25:53;10.23;;;5.93;;
43650;SDS011;29247;50.944;5.382;2023-03-01T15:30:58;9.10;;;6.10;;
43650;SDS011;29247;50.944;5.382;2023-03-01T15:33:33;10.57;;;5.78;;
43650;SDS011;29247;50.944;5.382;2023-03-01T15:36:02;10.60;;;6.30;;
43650;SDS011;29247;50.944;5.382;2023-03-01T15:38:52;9.55;;;6.03;;
43650;SDS011;29247;50.944;5.382;2023-03-01T15:43:53;14.38;;;7.80;;
43650;SDS011;29247;50.944;5.382;2023-03-01T15:46:30;9.65;;;6.55;;
43650;SDS011;29247;50.944;5.382;2023-03-01T15:48:58;11.43;;;6.70;;
43650;SDS011;29247;50.944;5.382;2023-03-01T15:51:31;8.65;;;6.03;;
43650;SDS011;29247;50.944;5.382;2023-03-01T15:54:00;10.38;;;5.38;;
43650;SDS011;29247;50.944;5.382;2023-03-01T15:59:01;11.60;;;4.88;;
43650;SDS011;29247;50.944;5.382;2023-03-01T16:01:28;6.32;;;4.45;;
43650;SDS011;29247;50.944;5.382;2023-03-01T16:03:54;11.65;;;5.28;;
43650;SDS011;29247;50.944;5.382;2023-03-01T16:06:21;10.57;;;4.88;;
43650;SDS011;29247;50.944;5.382;2023-03-01T16:08:49;11.07;;;5.10;;
43650;SDS011;29247;50.944;5.382;2023-03-01T16:11:16;5.50;;;4.22;;
43650;SDS011;29247;50.944;5.382;2023-03-01T16:13:43;7.28;;;4.38;;
43650;SDS011;29247;50.944;5.382;2023-03-01T16:16:10;7.28;;;5.28;;
43650;SDS011;29247;50.944;5.382;2023-03-01T16:18:44;8.60;;;4.45;;
43650;SDS011;29247;50.944;5.382;2023-03-01T16:21:15;8.02;;;4.32;;
43650;SDS011;29247;50.944;5.382;2023-03-01T16:23:48;8.80;;;5.22;;
43650;SDS011;29247;50.944;5.382;2023-03-01T16:26:13;7.15;;;4.45;;
43650;SDS011;29247;50.944;5.382;2023-03-01T16:28:40;10.30;;;5.05;;
43650;SDS011;29247;50.944;5.382;2023-03-01T16:31:06;7.20;;;4.47;;
43650;SDS011;29247;50.944;5.382;2023-03-01T16:33:37;11.88;;;4.93;;
43650;SDS011;29247;50.944;5.382;2023-03-01T16:36:07;8.50;;;4.93;;
43650;SDS011;29247;50.944;5.382;2023-03-01T16:38:35;9.88;;;5.13;;
43650;SDS011;29247;50.944;5.382;2023-03-01T16:41:01;7.28;;;4.65;;
43650;SDS011;29247;50.944;5.382;2023-03-01T16:43:26;8.90;;;5.00;;
43650;SDS011;29247;50.944;5.382;2023-03-01T16:45:55;11.90;;;4.93;;
43650;SDS011;29247;50.944;5.382;2023-03-01T16:48:23;9.50;;;5.05;;
43650;SDS011;29247;50.944;5.382;2023-03-01T16:50:59;8.07;;;5.07;;
43650;SDS011;29247;50.944;5.382;2023-03-01T16:53:27;8.77;;;5.90;;
43650;SDS011;29247;50.944;5.382;2023-03-01T16:55:57;10.90;;;5.38;;
43650;SDS011;29247;50.944;5.382;2023-03-01T16:58:24;11.18;;;5.85;;
43650;SDS011;29247;50.944;5.382;2023-03-01T17:00:51;12.90;;;5.65;;
43650;SDS011;29247;50.944;5.382;2023-03-01T17:03:18;10.35;;;5.65;;
43650;SDS011;29247;50.944;5.382;2023-03-01T17:05:44;8.30;;;5.40;;
43650;SDS011;29247;50.944;5.382;2023-03-01T17:08:10;10.27;;;4.55;;
43650;SDS011;29247;50.944;5.382;2023-03-01T17:10:38;7.93;;;5.55;;
43650;SDS011;29247;50.944;5.382;2023-03-01T17:13:06;13.40;;;5.28;;
43650;SDS011;29247;50.944;5.382;2023-03-01T17:15:34;11.43;;;4.97;;